Time;durP1;ratioP1;P1;durP2;ratioP2;P2;SDS_P1;SDS_P2;PMS_P1;PMS_P2;Temp;Humidity;BMP_temperature;BMP_pressure;BME280_temperature;BME280_humidity;BME280_pressure;Samples;Min_cycle;Max_cycle;Signal;HPM_P1;HPM_P2
2022/05/04 00:00:46;;;;;;;11.18;3.88;;;;;;;7.94;nan;102017.31;5034953;28;20033;-44
2022/05/04 00:03:12;;;;;;;10.10;3.88;;;;;;;7.56;nan;101948.38;5034774;28;20083;-50
2022/05/04 00:05:37;;;;;;;8.68;4.63;;;;;;;7.62;nan;101950.13;5017221;28;20031;-43
2022/05/04 00:08:03;;;;;;;8.38;3.85;;;;;;;7.58;nan;101948.41;5034830;28;20128;-44
2022/05/04 00:10:30;;;;;;;10.00;4.32;;;;;;;7.90;nan;101997.25;5034896;28;20033;-45
2022/05/04 00:12:57;;;;;;;7.00;4.57;;;;;;;7.99;nan;102004.19;5033582;28;20063;-46
2022/05/04 00:15:22;;;;;;;9.52;4.45;;;;;;;7.93;nan;101998.97;5034742;28;20030;-44
2022/05/04 00:17:47;;;;;;;7.60;3.88;;;;;;;7.75;nan;101962.31;5016977;28;20044;-44
2022/05/04 00:20:12;;;;;;;12.18;4.93;;;;;;;8.04;nan;102015.53;5016726;28;20056;-44
2022/05/04 00:22:38;;;;;;;14.55;4.63;;;;;;;7.72;nan;101949.22;5034358;28;20029;-47
2022/05/04 00:25:04;;;;;;;6.15;4.30;;;;;;;8.06;nan;102016.41;5033995;28;20480;-44
2022/05/04 00:27:29;;;;;;;6.82;4.38;;;;;;;7.61;nan;101933.56;5034463;28;20065;-44
2022/05/04 00:29:54;;;;;;;10.45;4.35;;;;;;;7.65;nan;101939.63;5034234;28;20492;-45
2022/05/04 00:32:19;;;;;;;10.27;4.40;;;;;;;8.09;nan;102005.91;5034436;28;20044;-41
2022/05/04 00:34:45;;;;;;;7.50;4.60;;;;;;;8.10;nan;102019.88;5034272;28;20091;-46
2022/05/04 00:37:11;;;;;;;6.07;4.15;;;;;;;7.94;nan;101982.34;5034601;28;20037;-45
2022/05/04 00:39:36;;;;;;;8.93;4.70;;;;;;;8.07;nan;102009.41;5016413;28;20511;-43
2022/05/04 00:42:13;;;;;;;11.02;4.63;;;;;;;7.76;nan;101950.97;5016313;28;20072;-45
2022/05/04 00:44:40;;;;;;;11.20;5.05;;;;;;;8.03;nan;101998.06;5034270;28;20037;-43
2022/05/04 00:47:07;;;;;;;10.55;5.10;;;;;;;8.05;nan;102012.06;5016384;28;20128;-46
2022/05/04 00:49:32;;;;;;;9.77;4.50;;;;;;;8.02;nan;102021.66;5016470;28;20047;-48
2022/05/04 00:51:58;;;;;;;13.70;4.40;;;;;;;8.02;nan;102006.81;5016352;28;20033;-42
2022/05/04 00:54:24;;;;;;;11.80;4.47;;;;;;;8.03;nan;101999.78;5016509;28;20432;-41
2022/05/04 00:56:49;;;;;;;11.85;5.07;;;;;;;7.99;nan;102009.44;5032846;28;20072;-46
2022/05/04 00:59:15;;;;;;;12.07;4.80;;;;;;;7.96;nan;101996.34;5033873;28;20044;-41
2022/05/04 01:01:41;;;;;;;11.98;5.25;;;;;;;7.84;nan;101972.78;5031832;28;20029;-42
2022/05/04 01:04:07;;;;;;;7.30;4.90;;;;;;;7.59;nan;101937.91;5031223;28;20380;-42
2022/05/04 01:06:33;;;;;;;7.90;4.82;;;;;;;7.86;nan;101984.13;5033205;28;20045;-42
2022/05/04 01:08:58;;;;;;;11.48;4.47;;;;;;;7.92;nan;101997.22;5031518;28;20033;-42
2022/05/04 01:11:23;;;;;;;9.98;5.03;;;;;;;7.81;nan;101981.53;5033847;28;20041;-47
2022/05/04 01:14:06;;;;;;;14.10;4.57;;;;;;;7.84;nan;101993.75;5033518;28;20041;-44
2022/05/04 01:16:33;;;;;;;7.80;4.30;;;;;;;7.47;nan;101924.00;5033797;28;20385;-44
2022/05/04 01:18:58;;;;;;;10.13;4.18;;;;;;;7.77;nan;101984.16;5016079;28;20036;-44
2022/05/04 01:21:24;;;;;;;9.90;4.60;;;;;;;7.36;nan;101927.50;5033608;28;20037;-44
2022/05/04 01:23:49;;;;;;;9.40;4.35;;;;;;;7.66;nan;101991.19;5033417;28;20033;-43
2022/05/04 01:26:16;;;;;;;10.07;4.40;;;;;;;7.62;nan;102000.78;5033375;28;20520;-43
2022/05/04 01:28:42;;;;;;;11.57;5.63;;;;;;;7.57;nan;101994.69;5033233;28;20105;-41
2022/05/04 01:31:08;;;;;;;12.77;5.57;;;;;;;7.33;nan;101952.81;5032768;28;20553;-44
2022/05/04 01:33:33;;;;;;;8.20;4.88;;;;;;;7.49;nan;101993.84;5031963;28;20060;-45
2022/05/04 01:35:58;;;;;;;10.27;5.20;;;;;;;7.44;nan;101985.13;5031882;28;20044;-47
2022/05/04 01:38:24;;;;;;;13.77;5.10;;;;;;;7.07;nan;101931.00;5033230;28;20125;-45
2022/05/04 01:40:49;;;;;;;8.95;4.57;;;;;;;7.25;nan;101981.63;5033148;28;20057;-45
2022/05/04 01:43:14;;;;;;;10.13;5.30;;;;;;;7.13;nan;101979.00;5033253;28;20424;-42
2022/05/04 01:45:39;;;;;;;8.85;5.05;;;;;;;7.04;nan;101979.00;5033251;28;20035;-44
2022/05/04 01:48:05;;;;;;;13.05;5.13;;;;;;;6.87;nan;101954.59;5033229;28;20034;-45
2022/05/04 01:50:30;;;;;;;15.18;6.03;;;;;;;6.88;nan;101971.16;5031624;28;20033;-44
2022/05/04 01:52:56;;;;;;;9.43;5.25;;;;;;;6.78;nan;101965.03;5032952;28;20116;-47
2022/05/04 01:55:22;;;;;;;10.35;5.65;;;;;;;6.68;nan;101964.16;5032854;28;20086;-46
2022/05/04 01:57:47;;;;;;;14.38;6.50;;;;;;;6.62;nan;101976.38;5015239;28;20396;-47
2022/05/04 02:00:13;;;;;;;11.55;6.00;;;;;;;6.56;nan;101964.16;5032571;28;20095;-46
2022/05/04 02:02:38;;;;;;;8.38;6.28;;;;;;;6.20;nan;101915.25;5015266;28;20039;-41
2022/05/04 02:05:05;;;;;;;10.63;5.45;;;;;;;6.41;nan;101963.25;5032731;28;20039;-45
2022/05/04 02:07:33;;;;;;;11.27;6.28;;;;;;;6.31;nan;101956.22;5015031;28;20124;-43
2022/05/04 02:09:58;;;;;;;9.00;5.32;;;;;;;6.25;nan;101957.09;5032657;28;20040;-45
2022/05/04 02:12:26;;;;;;;11.70;5.78;;;;;;;6.02;nan;101935.22;5032542;28;20428;-44
2022/05/04 02:14:51;;;;;;;7.60;5.85;;;;;;;5.94;nan;101932.59;5014885;28;20540;-51
2022/05/04 02:17:17;;;;;;;11.20;5.88;;;;;;;5.99;nan;101957.00;5032575;28;20038;-44
2022/05/04 02:19:42;;;;;;;9.77;5.97;;;;;;;5.92;nan;101957.84;5032356;28;20453;-44
2022/05/04 02:22:09;;;;;;;15.60;6.18;;;;;;;5.84;nan;101948.19;5032168;28;20045;-43
2022/05/04 02:24:34;;;;;;;9.60;6.07;;;;;;;5.77;nan;101949.91;5032376;28;20043;-48
2022/05/04 02:26:59;;;;;;;14.75;6.90;;;;;;;5.71;nan;101943.78;5031871;28;20038;-44
2022/05/04 02:29:25;;;;;;;10.82;5.70;;;;;;;5.26;nan;101879.09;5032493;28;20065;-43
2022/05/04 02:31:50;;;;;;;11.30;7.20;;;;;;;5.19;nan;101883.44;5032085;28;20472;-47
2022/05/04 02:34:15;;;;;;;13.13;6.50;;;;;;;5.24;nan;101906.94;5014738;28;20033;-41
2022/05/04 02:39:25;;;;;;;12.82;7.05;;;;;;;5.01;nan;101878.09;5031427;28;20128;-45
2022/05/04 02:41:52;;;;;;;10.93;6.82;;;;;;;4.94;nan;101871.06;5031679;28;20144;-41
2022/05/04 02:44:17;;;;;;;15.88;7.57;;;;;;;5.29;nan;101939.16;5032273;28;20044;-42
2022/05/04 02:46:43;;;;;;;15.70;6.95;;;;;;;4.89;nan;101878.00;5031642;28;20025;-41
2022/05/04 02:49:08;;;;;;;10.25;6.88;;;;;;;4.92;nan;101884.13;5032062;28;20031;-50
2022/05/04 02:51:33;;;;;;;10.98;6.65;;;;;;;5.14;nan;101912.97;5032036;28;20040;-46
2022/05/04 02:53:59;;;;;;;18.85;7.35;;;;;;;5.17;nan;101928.66;5030924;28;20396;-42
2022/05/04 02:56:24;;;;;;;9.32;6.40;;;;;;;5.13;nan;101930.38;5032013;28;20077;-45
2022/05/04 02:58:51;;;;;;;10.25;6.63;;;;;;;5.06;nan;101920.75;5031994;28;20480;-45
2022/05/04 03:04:04;;;;;;;15.68;7.05;;;;;;;4.59;nan;101857.75;5031953;28;20044;-44
2022/05/04 03:06:29;;;;;;;12.30;7.22;;;;;;;4.92;nan;101927.59;5031701;28;20045;-42
2022/05/04 03:08:55;;;;;;;10.52;6.90;;;;;;;4.88;nan;101928.41;5031793;28;20111;-43
2022/05/04 03:14:07;;;;;;;10.43;7.35;;;;;;;4.80;nan;101924.88;5032015;28;20052;-47
2022/05/04 03:16:36;;;;;;;12.57;7.28;;;;;;;4.74;nan;101922.22;5031925;28;20124;-46
2022/05/04 03:19:04;;;;;;;12.77;7.60;;;;;;;4.41;nan;101868.91;5014403;28;20476;-43
2022/05/04 03:21:30;;;;;;;12.23;7.90;;;;;;;4.47;nan;101875.91;5014152;28;20038;-44
2022/05/04 03:23:55;;;;;;;12.35;7.88;;;;;;;4.66;nan;101913.47;5014356;28;20045;-45
2022/05/04 03:26:21;;;;;;;11.68;6.65;;;;;;;4.68;nan;101920.44;5031944;28;20045;-44
2022/05/04 03:28:46;;;;;;;12.95;7.75;;;;;;;4.67;nan;101912.59;5031887;28;20068;-48
2022/05/04 03:31:12;;;;;;;11.30;7.85;;;;;;;4.62;nan;101909.94;5013904;28;20117;-48
2022/05/04 03:33:37;;;;;;;13.18;7.65;;;;;;;4.25;nan;101842.69;5031555;28;20057;-45
2022/05/04 03:36:03;;;;;;;15.40;7.97;;;;;;;4.49;nan;101898.53;5014122;28;20034;-43
2022/05/04 03:38:28;;;;;;;14.30;8.02;;;;;;;4.55;nan;101903.78;5031925;28;20034;-46
2022/05/04 03:40:53;;;;;;;12.20;8.00;;;;;;;4.54;nan;101898.59;5031715;28;20037;-44
2022/05/04 03:43:18;;;;;;;10.27;7.65;;;;;;;4.13;nan;101832.16;5013680;28;20045;-45
2022/05/04 03:45:44;;;;;;;13.80;7.78;;;;;;;4.49;nan;101892.47;5031829;28;20465;-46
2022/05/04 03:48:09;;;;;;;10.80;7.78;;;;;;;4.09;nan;101836.47;5031808;28;20068;-49
2022/05/04 03:50:34;;;;;;;18.83;8.57;;;;;;;4.06;nan;101828.59;5031435;28;20060;-46
2022/05/04 03:53:00;;;;;;;13.75;6.95;;;;;;;4.44;nan;101904.56;5030498;28;20041;-50
2022/05/04 03:55:25;;;;;;;10.70;7.45;;;;;;;4.35;nan;101894.06;5031691;28;20091;-48
2022/05/04 03:57:50;;;;;;;15.63;8.15;;;;;;;4.37;nan;101903.66;5031670;28;20160;-45
2022/05/04 04:00:16;;;;;;;12.27;7.25;;;;;;;4.34;nan;101911.44;5033464;28;20075;-44
2022/05/04 04:02:42;;;;;;;11.65;7.57;;;;;;;4.30;nan;101917.47;5034946;28;20112;-50
2022/05/04 04:05:08;;;;;;;15.30;8.63;;;;;;;4.01;nan;101873.72;5034724;28;20037;-49
2022/05/04 04:07:33;;;;;;;11.70;8.05;;;;;;;4.17;nan;101892.16;5034844;28;20476;-46
2022/05/04 04:09:58;;;;;;;15.63;8.80;;;;;;;3.88;nan;101839.72;5034967;28;20040;-47
2022/05/04 04:12:24;;;;;;;13.57;8.38;;;;;;;3.88;nan;101831.91;5034920;28;20041;-43
2022/05/04 04:14:49;;;;;;;13.23;8.18;;;;;;;4.29;nan;101905.28;5033666;28;20072;-43
2022/05/04 04:17:15;;;;;;;17.33;8.02;;;;;;;3.90;nan;101832.81;5034741;28;20037;-46
2022/05/04 04:19:40;;;;;;;13.25;7.60;;;;;;;3.76;nan;101810.09;5034653;28;20091;-45
2022/05/04 04:22:05;;;;;;;16.15;7.85;;;;;;;3.88;nan;101842.31;5035003;28;20040;-41
2022/05/04 04:24:31;;;;;;;14.35;8.23;;;;;;;4.21;nan;101904.34;5034662;28;20037;-43
2022/05/04 04:26:56;;;;;;;12.98;7.68;;;;;;;4.20;nan;101904.34;5034588;28;20087;-47
2022/05/04 04:29:21;;;;;;;22.30;9.07;;;;;;;4.09;nan;101892.91;5034477;28;20033;-45
2022/05/04 04:31:47;;;;;;;13.95;8.43;;;;;;;4.17;nan;101913.00;5034526;28;20042;-41
2022/05/04 04:34:12;;;;;;;15.40;8.20;;;;;;;4.14;nan;101901.66;5034259;28;20044;-49
2022/05/04 04:36:38;;;;;;;15.48;8.55;;;;;;;4.15;nan;101917.28;5034495;28;20095;-47
2022/05/04 04:39:04;;;;;;;13.27;8.40;;;;;;;4.18;nan;101922.53;5016561;28;20486;-44
2022/05/04 04:41:30;;;;;;;12.25;8.30;;;;;;;4.20;nan;101917.38;5032776;28;20090;-45
2022/05/04 04:43:55;;;;;;;13.98;8.65;;;;;;;4.24;nan;101927.81;5033134;28;20042;-55
2022/05/04 04:46:20;;;;;;;11.57;7.53;;;;;;;3.96;nan;101866.75;5016562;28;20061;-47
2022/05/04 04:48:46;;;;;;;14.45;8.68;;;;;;;4.32;nan;101926.16;5016621;28;20048;-41
2022/05/04 04:51:11;;;;;;;13.98;8.35;;;;;;;4.36;nan;101921.84;5034345;28;20034;-42
2022/05/04 04:53:38;;;;;;;14.77;9.43;;;;;;;4.06;nan;101859.88;5034115;28;20464;-46
2022/05/04 04:56:04;;;;;;;16.60;9.40;;;;;;;4.15;nan;101866.91;5034067;28;20033;-46
2022/05/04 04:58:30;;;;;;;15.13;8.82;;;;;;;4.46;nan;101927.19;5033868;28;20042;-43
2022/05/04 05:00:56;;;;;;;13.07;8.93;;;;;;;4.12;nan;101859.06;5033696;28;20041;-48
2022/05/04 05:03:21;;;;;;;14.90;8.90;;;;;;;4.16;nan;101850.44;5033664;28;20042;-44
2022/05/04 05:05:46;;;;;;;13.02;8.80;;;;;;;4.60;nan;101914.28;5033978;28;20045;-47
2022/05/04 05:08:12;;;;;;;16.77;9.32;;;;;;;4.54;nan;101906.41;5032651;28;20073;-46
2022/05/04 05:10:38;;;;;;;15.77;8.07;;;;;;;4.69;nan;101913.50;5033411;28;20041;-51
2022/05/04 05:13:04;;;;;;;11.98;8.68;;;;;;;4.36;nan;101849.75;5015986;28;20033;-41
2022/05/04 05:18:14;;;;;;;16.27;10.15;;;;;;;4.59;nan;101856.88;5033602;28;20057;-43
2022/05/04 05:20:39;;;;;;;18.17;9.05;;;;;;;4.94;nan;101905.00;5033592;28;20038;-45
2022/05/04 05:23:05;;;;;;;18.58;9.68;;;;;;;4.72;nan;101854.41;5033689;28;20392;-47
2022/05/04 05:25:32;;;;;;;13.70;7.60;;;;;;;5.18;nan;101918.22;5015698;28;20477;-47
2022/05/04 05:27:58;;;;;;;13.32;8.88;;;;;;;4.88;nan;101851.03;5015988;28;20037;-50
2022/05/04 05:30:23;;;;;;;15.48;9.27;;;;;;;5.30;nan;101905.25;4999194;28;20033;-49
2022/05/04 05:32:49;;;;;;;15.38;9.10;;;;;;;5.19;nan;101857.34;5015598;28;20029;-44
2022/05/04 05:35:14;;;;;;;14.48;8.77;;;;;;;5.33;nan;101855.66;5015742;28;20034;-46
2022/05/04 05:37:39;;;;;;;13.80;7.72;;;;;;;5.85;nan;101923.78;5033249;28;20155;-46
2022/05/04 05:40:05;;;;;;;10.57;7.10;;;;;;;6.01;nan;101929.13;5033222;28;20476;-45
2022/05/04 05:42:32;;;;;;;13.68;7.85;;;;;;;5.84;nan;101865.44;5032985;28;20447;-42
2022/05/04 05:44:57;;;;;;;11.27;6.65;;;;;;;6.32;nan;101917.03;5032934;28;20083;-41
2022/05/04 05:47:23;;;;;;;15.18;7.28;;;;;;;6.52;nan;101935.34;5033107;28;20029;-42
2022/05/04 05:49:48;;;;;;;13.13;6.30;;;;;;;6.65;nan;101937.13;5014871;28;20037;-48
2022/05/04 05:52:14;;;;;;;16.42;6.80;;;;;;;6.70;nan;101919.69;5032765;28;20120;-42
2022/05/04 05:54:39;;;;;;;14.95;7.53;;;;;;;6.86;nan;101934.50;5033060;28;20104;-45
2022/05/04 05:57:05;;;;;;;12.40;6.47;;;;;;;6.75;nan;101884.78;5031681;28;20038;-40
2022/05/04 05:59:30;;;;;;;16.40;7.25;;;;;;;6.85;nan;101879.56;5031325;28;20029;-44
2022/05/04 06:01:55;;;;;;;10.40;6.10;;;;;;;6.98;nan;101870.81;5032623;28;20075;-52
2022/05/04 06:04:21;;;;;;;12.88;6.43;;;;;;;7.21;nan;101895.19;5031603;28;20037;-47
2022/05/04 06:06:46;;;;;;;11.90;6.60;;;;;;;7.67;nan;101959.75;5032362;28;20308;-44
2022/05/04 06:09:12;;;;;;;11.13;6.53;;;;;;;7.83;nan;101961.41;5032595;28;20032;-46
2022/05/04 06:11:37;;;;;;;11.38;6.13;;;;;;;7.88;nan;101943.06;5032576;28;20393;-47
2022/05/04 06:14:03;;;;;;;11.55;6.10;;;;;;;8.11;nan;101961.31;5014900;28;20037;-45
2022/05/04 06:16:28;;;;;;;9.63;5.80;;;;;;;8.19;nan;101970.91;5032508;28;20041;-46
2022/05/04 06:18:53;;;;;;;9.85;6.45;;;;;;;8.23;nan;101966.53;5032639;28;20036;-43
2022/05/04 06:21:19;;;;;;;9.05;4.93;;;;;;;8.23;nan;101956.88;5013959;28;20072;-45
2022/05/04 06:23:44;;;;;;;11.48;6.05;;;;;;;8.05;nan;101914.16;5014520;28;20026;-48
2022/05/04 06:26:10;;;;;;;13.43;5.18;;;;;;;8.51;nan;101985.63;5014843;28;20412;-44
2022/05/04 06:28:35;;;;;;;7.93;5.32;;;;;;;8.66;nan;101980.28;5032309;28;20281;-42
2022/05/04 06:36:28;;;;;;;8.70;5.47;;;;;;;8.90;nan;101931.09;5031329;28;20083;-41
2022/05/04 06:38:54;;;;;;;10.00;4.68;;;;;;;9.09;nan;101926.56;5032283;28;20046;-44
2022/05/04 06:41:19;;;;;;;8.77;5.38;;;;;;;9.59;nan;101971.63;5031682;28;20464;-43
2022/05/04 06:43:45;;;;;;;7.28;4.50;;;;;;;9.42;nan;101928.00;5014526;28;20480;-43
2022/05/04 06:46:11;;;;;;;8.27;5.03;;;;;;;9.92;nan;102004.56;5014520;28;20079;-45
2022/05/04 06:48:36;;;;;;;6.60;5.32;;;;;;;9.68;nan;101956.63;5032146;28;20050;-48
2022/05/04 06:51:02;;;;;;;8.15;4.80;;;;;;;9.74;nan;101965.31;5032123;28;20060;-45
2022/05/04 06:53:27;;;;;;;6.38;4.45;;;;;;;10.10;nan;102012.22;5031921;28;20132;-41
2022/05/04 06:55:53;;;;;;;6.18;4.55;;;;;;;10.20;nan;102026.19;5031980;28;20037;-43
2022/05/04 06:58:18;;;;;;;8.88;5.35;;;;;;;9.93;nan;101940.53;5031979;28;20030;-45
2022/05/04 07:00:44;;;;;;;7.57;4.30;;;;;;;10.38;nan;102010.19;5030232;28;20021;-45
2022/05/04 07:03:09;;;;;;;8.68;5.00;;;;;;;10.65;nan;102016.84;5032126;28;20048;-47
2022/05/04 07:05:35;;;;;;;9.38;5.45;;;;;;;10.78;nan;102026.28;5014081;28;20041;-43
2022/05/04 07:08:00;;;;;;;10.82;6.70;;;;;;;10.88;nan;102000.69;5031770;28;20033;-45
2022/05/04 07:10:25;;;;;;;8.48;5.47;;;;;;;;;;5031777;28;20034;-52
2022/05/04 07:12:51;;;;;;;10.70;6.57;;;;;;;11.20;nan;102020.38;5030448;28;20029;-46
2022/05/04 07:15:17;;;;;;;9.95;6.53;;;;;;;11.28;nan;102001.78;5032025;28;20044;-46
2022/05/04 07:17:43;;;;;;;11.45;5.97;;;;;;;11.41;nan;102013.88;5030699;28;20069;-49
2022/05/04 07:20:09;;;;;;;10.65;5.88;;;;;;;11.51;nan;102019.84;5014082;28;20037;-40
2022/05/04 07:22:35;;;;;;;6.57;5.28;;;;;;;11.23;nan;101957.06;5031667;28;20061;-44
2022/05/04 07:25:00;;;;;;;8.77;5.57;;;;;;;11.68;nan;102008.09;5031545;28;20282;-47
2022/05/04 07:27:25;;;;;;;12.65;6.40;;;;;;;11.75;nan;101991.31;5031558;28;20029;-46
2022/05/04 07:29:51;;;;;;;8.80;5.93;;;;;;;12.16;nan;102013.38;5031612;28;20091;-48
2022/05/04 07:32:16;;;;;;;9.07;5.82;;;;;;;12.69;nan;102010.47;5031780;28;20044;-43
2022/05/04 07:34:42;;;;;;;7.10;5.00;;;;;;;12.90;nan;102004.66;5000657;28;20037;-49
2022/05/04 07:37:07;;;;;;;7.60;4.70;;;;;;;13.01;nan;101962.13;5033783;28;20030;-43
2022/05/04 07:42:21;;;;;;;9.52;5.18;;;;;;;14.30;nan;102024.84;5034887;28;20061;-41
2022/05/04 07:44:47;;;;;;;6.75;4.45;;;;;;;13.95;nan;101992.25;5034958;28;20025;-45
2022/05/04 07:47:13;;;;;;;8.63;5.30;;;;;;;13.98;nan;102017.81;5017368;28;20033;-43
2022/05/04 07:49:38;;;;;;;8.43;4.70;;;;;;;14.01;nan;102013.25;5035024;28;20134;-42
2022/05/04 07:52:04;;;;;;;7.35;4.60;;;;;;;13.76;nan;101980.47;5034947;28;20373;-42
2022/05/04 07:54:29;;;;;;;6.43;4.88;;;;;;;13.68;nan;102003.63;5034798;28;20564;-43
2022/05/04 07:56:55;;;;;;;7.25;5.00;;;;;;;13.60;nan;102010.03;5034904;28;20029;-43
2022/05/04 07:59:20;;;;;;;9.48;4.68;;;;;;;13.45;nan;101992.78;5035065;28;20065;-45
2022/05/04 08:04:30;;;;;;;8.63;4.65;;;;;;;13.44;nan;102021.00;5033826;28;20400;-42
2022/05/04 08:06:55;;;;;;;9.43;4.50;;;;;;;13.59;nan;102016.22;5034645;28;20038;-48
2022/05/04 08:09:21;;;;;;;9.30;4.57;;;;;;;13.73;nan;101964.66;5035690;28;20026;-44
2022/05/04 08:11:46;;;;;;;7.60;4.03;;;;;;;14.23;nan;102017.97;5037930;28;20041;-43
2022/05/04 08:14:12;;;;;;;7.90;4.78;;;;;;;14.68;nan;101965.41;5034510;28;20044;-46
2022/05/04 08:16:39;;;;;;;8.25;4.95;;;;;;;15.04;nan;101967.75;5034646;28;20492;-44
2022/05/04 08:19:06;;;;;;;8.27;4.55;;;;;;;15.36;nan;102019.72;5016779;28;20068;-48
2022/05/04 08:21:32;;;;;;;7.07;4.55;;;;;;;15.65;nan;101968.31;5034363;28;20725;-45
2022/05/04 08:23:57;;;;;;;7.60;4.50;;;;;;;16.10;nan;102021.56;5034470;28;20037;-43
2022/05/04 08:26:22;;;;;;;5.47;3.80;;;;;;;15.66;nan;101973.59;5033361;28;20496;-42
2022/05/04 08:28:48;;;;;;;8.93;3.75;;;;;;;15.86;nan;101999.44;5033187;28;20048;-41
2022/05/04 08:31:14;;;;;;;8.02;4.18;;;;;;;15.81;nan;101976.63;5034443;28;20041;-41
2022/05/04 08:33:40;;;;;;;8.15;4.10;;;;;;;15.69;nan;102025.72;5034281;28;20037;-43
2022/05/04 08:36:05;;;;;;;5.97;4.07;;;;;;;15.34;nan;102018.03;5034208;28;20037;-42
2022/05/04 08:38:31;;;;;;;8.45;4.60;;;;;;;15.74;nan;101974.19;5034351;28;20041;-41
2022/05/04 08:40:56;;;;;;;7.68;4.55;;;;;;;16.49;nan;102027.22;5034255;28;20040;-45
2022/05/04 08:43:25;;;;;;;5.45;4.30;;;;;;;16.70;nan;101978.53;5033899;28;20349;-43
2022/05/04 08:45:51;;;;;;;6.80;4.50;;;;;;;17.77;nan;102029.97;5015356;28;20481;-43
2022/05/04 08:48:18;;;;;;;6.35;3.85;;;;;;;18.28;nan;102029.41;5032783;28;20033;-42
2022/05/04 08:50:44;;;;;;;10.80;4.40;;;;;;;17.41;nan;102004.84;5016442;28;20033;-41
2022/05/04 08:53:10;;;;;;;6.78;4.30;;;;;;;16.63;nan;102020.47;5015616;28;20040;-44
2022/05/04 08:55:38;;;;;;;7.63;4.70;;;;;;;16.30;nan;102027.91;5033644;28;20044;-44
2022/05/04 08:58:03;;;;;;;8.65;4.35;;;;;;;15.80;nan;102006.72;5033121;28;20030;-45
2022/05/04 09:00:28;;;;;;;7.32;4.60;;;;;;;16.00;nan;102014.84;5033639;28;20411;-43
2022/05/04 09:02:54;;;;;;;11.23;4.80;;;;;;;15.88;nan;101960.41;5032576;28;20091;-43
2022/05/04 09:05:27;;;;;;;9.18;4.50;;;;;;;16.58;nan;102018.91;5032550;28;20043;-46
2022/05/04 09:07:57;;;;;;;6.82;4.85;;;;;;;17.08;nan;101961.03;5033778;28;20034;-42
2022/05/04 09:10:26;;;;;;;8.60;5.38;;;;;;;17.60;nan;102015.63;5033657;28;20064;-44
2022/05/04 09:12:55;;;;;;;5.63;4.50;;;;;;;17.24;nan;101962.13;5032559;28;20033;-44
2022/05/04 09:15:26;;;;;;;6.72;4.65;;;;;;;17.79;nan;102012.09;5033461;28;20029;-46
2022/05/04 09:18:00;;;;;;;8.82;4.82;;;;;;;17.93;nan;102007.03;5015883;28;20452;-49
2022/05/04 09:20:48;;;;;;;6.15;4.88;;;;;;;18.41;nan;102013.75;5033472;28;20415;-46
2022/05/04 09:23:14;;;;;;;5.55;4.47;;;;;;;18.45;nan;101956.66;5017654;28;20117;-42
2022/05/04 09:25:39;;;;;;;8.07;5.07;;;;;;;19.03;nan;102006.28;5033443;28;20357;-40
2022/05/04 09:28:10;;;;;;;8.50;5.25;;;;;;;18.87;nan;101997.31;5033324;28;20140;-42
2022/05/04 09:30:35;;;;;;;6.80;4.70;;;;;;;19.26;nan;101994.50;5033448;28;20120;-43
2022/05/04 09:33:01;;;;;;;11.35;4.20;;;;;;;19.56;nan;101989.41;5033310;28;20117;-47
2022/05/04 09:35:27;;;;;;;5.85;4.75;;;;;;;19.70;nan;101986.06;5015673;28;20045;-45
2022/05/04 09:46:08;;;;;;;7.38;4.80;;;;;;;20.10;nan;101940.22;5015501;28;20519;-41
2022/05/04 09:48:35;;;;;;;6.97;5.15;;;;;;;20.04;nan;101980.63;5028791;28;20037;-49
2022/05/04 09:51:05;;;;;;;8.95;5.45;;;;;;;18.97;nan;101968.41;5029162;28;20041;-42
2022/05/04 09:53:32;;;;;;;8.18;5.20;;;;;;;18.93;nan;102005.03;5009737;28;20041;-45
2022/05/04 09:55:57;;;;;;;8.50;5.50;;;;;;;19.25;nan;101983.88;4994487;28;20050;-44
2022/05/04 09:58:25;;;;;;;5.55;4.95;;;;;;;19.92;nan;101984.84;5012171;28;20390;-45
2022/05/04 10:00:51;;;;;;;8.07;5.15;;;;;;;20.77;nan;101999.75;5013140;28;20037;-45
2022/05/04 10:03:18;;;;;;;8.77;5.55;;;;;;;21.48;nan;101938.47;5012749;28;20084;-44
2022/05/04 10:05:45;;;;;;;16.35;5.97;;;;;;;21.42;nan;101948.69;5013071;28;20038;-43
2022/05/04 10:08:10;;;;;;;8.18;5.18;;;;;;;;;;5012975;28;20062;-45
2022/05/04 10:10:36;;;;;;;5.78;4.63;;;;;;;;;;5012936;28;20058;-46
2022/05/04 10:13:01;;;;;;;9.20;5.13;;;;;;;;;;5012706;28;20038;-46
2022/05/04 10:15:27;;;;;;;6.40;4.72;;;;;;;22.91;nan;101981.28;5012628;28;20030;-46
2022/05/04 10:18:04;;;;;;;8.65;5.13;;;;;;;23.24;nan;101972.78;4995035;28;20114;-42
2022/05/04 10:20:42;;;;;;;9.18;5.13;;;;;;;22.06;nan;101981.38;5011629;28;20068;-43
2022/05/04 10:23:25;;;;;;;9.85;5.68;;;;;;;21.92;nan;101951.84;4995109;28;20503;-41
2022/05/04 10:25:53;;;;;;;8.02;5.40;;;;;;;21.85;nan;101956.72;5012802;28;20469;-44
2022/05/04 10:28:19;;;;;;;9.50;5.50;;;;;;;21.98;nan;101962.19;5012556;28;20033;-45
2022/05/04 10:30:47;;;;;;;10.10;6.22;;;;;;;22.15;nan;101980.81;5012744;28;20041;-45
2022/05/04 10:33:13;;;;;;;8.82;6.32;;;;;;;22.34;nan;101932.19;4994981;28;20026;-42
2022/05/04 10:35:42;;;;;;;8.95;5.75;;;;;;;22.76;nan;101928.59;5011301;28;20042;-44
2022/05/04 10:38:14;;;;;;;8.20;6.00;;;;;;;23.25;nan;101971.81;5012408;28;20104;-46
2022/05/04 10:40:42;;;;;;;9.68;5.35;;;;;;;24.15;nan;101953.88;5012463;28;20033;-45
2022/05/04 10:43:13;;;;;;;12.18;6.30;;;;;;;24.00;nan;101963.88;5012623;28;20489;-44
2022/05/04 10:45:40;;;;;;;10.40;5.85;;;;;;;23.64;nan;101965.59;5012588;28;20071;-44
2022/05/04 10:48:14;;;;;;;7.03;5.93;;;;;;;23.63;nan;101971.91;5012559;28;20221;-45
2022/05/04 10:50:49;;;;;;;7.90;6.30;;;;;;;22.98;nan;101972.69;5012304;28;20289;-43
2022/05/04 10:53:19;;;;;;;9.35;6.30;;;;;;;22.59;nan;101923.44;5012210;28;20037;-44
2022/05/04 10:56:03;;;;;;;10.27;6.53;;;;;;;22.85;nan;101912.72;5012515;28;20381;-49
2022/05/04 10:58:49;;;;;;;9.95;5.90;;;;;;;22.00;nan;101965.66;5012313;28;20030;-48
2022/05/04 11:01:26;;;;;;;8.13;5.90;;;;;;;20.73;nan;101917.91;5012213;28;20087;-46
2022/05/04 11:04:05;;;;;;;8.52;6.45;;;;;;;20.75;nan;101901.78;4994929;28;20029;-48
2022/05/04 11:06:32;;;;;;;8.23;5.90;;;;;;;20.14;nan;101907.88;5012313;28;20069;-47
2022/05/04 11:09:06;;;;;;;7.55;4.43;;;;;;;20.08;nan;101907.38;5015380;28;20034;-42
2022/05/04 11:11:33;;;;;;;6.93;3.50;;;;;;;19.67;nan;101916.75;5016243;28;20120;-41
2022/05/04 11:13:58;;;;;;;5.68;3.35;;;;;;;20.03;nan;101961.06;4998681;28;20446;-42
2022/05/04 11:16:25;;;;;;;8.13;3.67;;;;;;;19.92;nan;101967.94;5015944;28;20125;-44
2022/05/04 11:18:50;;;;;;;8.60;3.97;;;;;;;20.69;nan;101963.69;5016305;28;20064;-45
2022/05/04 11:21:16;;;;;;;7.70;4.78;;;;;;;20.41;nan;101947.44;5016044;28;20066;-46
2022/05/04 11:23:49;;;;;;;7.20;3.90;;;;;;;21.67;nan;101971.25;5016109;28;20037;-45
2022/05/04 11:26:23;;;;;;;4.15;3.58;;;;;;;22.30;nan;101965.53;5016032;28;20040;-45
2022/05/04 11:28:49;;;;;;;5.88;3.90;;;;;;;21.42;nan;101959.41;5015883;28;20025;-45
2022/05/04 11:31:16;;;;;;;7.78;3.78;;;;;;;20.47;nan;101918.53;4998288;28;20544;-42
2022/05/04 11:33:45;;;;;;;4.97;4.07;;;;;;;20.80;nan;101907.72;5015544;28;20148;-45
2022/05/04 11:36:11;;;;;;;7.00;4.70;;;;;;;22.19;nan;101938.53;4998131;28;20042;-45
2022/05/04 11:38:37;;;;;;;7.38;3.95;;;;;;;22.71;nan;101898.47;5015604;28;20472;-44
2022/05/04 11:41:02;;;;;;;6.85;4.97;;;;;;;23.32;nan;101960.53;5014400;28;20057;-47
2022/05/04 11:43:33;;;;;;;6.05;4.35;;;;;;;23.09;nan;101952.34;5015658;28;20050;-41
2022/05/04 11:46:11;;;;;;;10.27;4.28;;;;;;;22.30;nan;101904.69;5015805;28;20041;-48
2022/05/04 11:48:39;;;;;;;8.75;4.95;;;;;;;23.16;nan;101898.09;4998439;28;20401;-49
2022/05/04 11:51:05;;;;;;;7.15;4.22;;;;;;;22.71;nan;101939.59;4997964;28;20121;-48
2022/05/04 11:53:31;;;;;;;8.75;4.68;;;;;;;21.38;nan;101960.53;5015421;28;20046;-44
2022/05/04 11:55:58;;;;;;;6.03;4.03;;;;;;;20.69;nan;101947.63;4997744;28;20033;-44
2022/05/04 11:58:27;;;;;;;6.78;4.35;;;;;;;20.95;nan;101956.81;5015178;28;20049;-40
2022/05/04 12:00:53;;;;;;;5.55;4.55;;;;;;;20.32;nan;101903.34;5015387;28;20080;-44
2022/05/04 12:03:19;;;;;;;6.93;4.15;;;;;;;19.98;nan;101940.88;5015111;28;20041;-46
2022/05/04 12:05:44;;;;;;;7.53;4.25;;;;;;;19.19;nan;101880.09;4997796;28;20037;-44
2022/05/04 12:08:10;;;;;;;6.97;4.18;;;;;;;19.13;nan;101845.72;5015048;28;20061;-43
2022/05/04 12:10:36;;;;;;;5.78;4.05;;;;;;;20.13;nan;101940.06;5013754;28;20136;-44